createdAt,value
2019-02-19T00:01:22.032Z,22.43
2019-02-19T00:03:52.423Z,22.23
2019-02-19T00:06:22.884Z,20.07
2019-02-19T00:08:54.875Z,20.33
2019-02-19T00:11:25.241Z,19.23
2019-02-19T00:13:55.558Z,18.80
2019-02-19T00:16:26.051Z,18.43
2019-02-19T00:18:56.481Z,18.17
2019-02-19T00:21:26.842Z,19.37
2019-02-19T00:23:57.169Z,18.17
2019-02-19T00:26:27.518Z,17.23
2019-02-19T00:28:57.832Z,17.63
2019-02-19T00:31:28.198Z,16.90
2019-02-19T00:33:58.589Z,15.30
2019-02-19T00:36:28.955Z,16.10
2019-02-19T00:38:59.399Z,16.70
2019-02-19T00:41:29.807Z,16.03
2019-02-19T00:44:00.134Z,15.43
2019-02-19T00:46:30.518Z,15.93
2019-02-19T00:49:00.840Z,15.47
2019-02-19T00:51:31.174Z,15.40
2019-02-19T00:54:01.552Z,15.27
2019-02-19T00:56:31.874Z,15.63
2019-02-19T00:59:02.250Z,14.53
2019-02-19T01:01:32.577Z,15.40
2019-02-19T01:04:03.124Z,14.90
2019-02-19T01:06:33.468Z,13.90
2019-02-19T01:09:05.242Z,12.63
2019-02-19T01:11:35.864Z,14.17
2019-02-19T01:14:06.447Z,14.27
2019-02-19T01:16:36.835Z,14.13
2019-02-19T01:19:07.269Z,13.63
2019-02-19T01:21:37.707Z,13.10
2019-02-19T01:24:08.115Z,12.40
2019-02-19T01:26:38.477Z,12.27
2019-02-19T01:29:08.823Z,12.57
2019-02-19T01:31:39.302Z,11.73
2019-02-19T01:34:09.794Z,11.40
2019-02-19T01:36:40.851Z,10.60
2019-02-19T01:39:11.387Z,10.50
2019-02-19T01:41:41.789Z,10.17
2019-02-19T01:44:12.290Z,9.23
2019-02-19T01:46:42.881Z,9.47
2019-02-19T01:49:13.193Z,9.33
2019-02-19T01:51:43.821Z,9.73
2019-02-19T01:54:14.274Z,9.50
2019-02-19T01:56:44.581Z,9.43
2019-02-19T01:59:14.999Z,9.07
2019-02-19T02:01:45.642Z,9.70
2019-02-19T02:04:15.969Z,9.93
2019-02-19T02:06:46.282Z,9.25
2019-02-19T02:09:16.626Z,8.20
2019-02-19T02:11:47.028Z,9.20
2019-02-19T02:14:17.466Z,8.85
2019-02-19T02:16:47.788Z,8.87
2019-02-19T02:19:18.220Z,9.03
2019-02-19T02:21:48.977Z,8.53
2019-02-19T02:24:19.282Z,8.00
2019-02-19T02:26:49.831Z,7.90
2019-02-19T02:29:20.186Z,7.60
2019-02-19T02:31:50.627Z,7.87
2019-02-19T02:34:21.083Z,7.53
2019-02-19T02:36:51.678Z,8.10
2019-02-19T02:39:22.019Z,7.93
2019-02-19T02:41:52.616Z,7.60
2019-02-19T02:44:22.972Z,7.53
2019-02-19T02:46:53.477Z,8.27
2019-02-19T02:49:23.945Z,7.83
2019-02-19T02:51:54.359Z,8.10
2019-02-19T02:54:24.971Z,8.20
2019-02-19T02:56:55.453Z,8.60
2019-02-19T02:59:25.964Z,8.20
2019-02-19T03:01:56.376Z,9.07
2019-02-19T03:04:26.743Z,8.53
2019-02-19T03:07:11.642Z,8.80
2019-02-19T03:09:41.995Z,8.40
2019-02-19T03:12:12.398Z,8.63
2019-02-19T03:14:42.739Z,8.63
2019-02-19T03:17:13.059Z,8.47
2019-02-19T03:19:43.546Z,8.53
2019-02-19T03:22:13.914Z,7.87
2019-02-19T03:24:44.330Z,7.57
2019-02-19T03:27:14.651Z,7.47
2019-02-19T03:29:45.071Z,7.20
2019-02-19T03:32:15.385Z,6.93
2019-02-19T03:34:45.732Z,7.10
2019-02-19T03:37:16.056Z,7.60
2019-02-19T03:39:47.352Z,7.17
2019-02-19T03:42:18.187Z,6.50
2019-02-19T03:44:48.810Z,6.93
2019-02-19T03:47:19.317Z,6.97
2019-02-19T03:49:49.886Z,6.83
2019-02-19T03:52:20.232Z,7.63
2019-02-19T03:54:50.570Z,7.27
2019-02-19T03:57:20.914Z,7.63
2019-02-19T03:59:51.367Z,7.93
2019-02-19T04:02:21.660Z,7.77
2019-02-19T04:04:52.118Z,7.37
2019-02-19T04:07:22.447Z,7.93
2019-02-19T04:09:52.788Z,7.77
2019-02-19T04:12:23.527Z,7.73
2019-02-19T04:14:53.874Z,7.60
2019-02-19T04:17:24.181Z,8.00
2019-02-19T04:19:54.522Z,8.03
2019-02-19T04:22:24.855Z,7.50
2019-02-19T04:24:55.200Z,8.20
2019-02-19T04:27:25.500Z,7.67
2019-02-19T04:29:55.873Z,7.67
2019-02-19T04:32:26.195Z,7.90
2019-02-19T04:34:56.535Z,8.43
2019-02-19T04:37:26.856Z,8.10
2019-02-19T04:39:57.209Z,7.73
2019-02-19T04:42:27.565Z,7.57
2019-02-19T04:44:57.901Z,7.70
2019-02-19T04:47:28.406Z,6.73
2019-02-19T04:49:58.751Z,7.00
2019-02-19T04:52:29.070Z,7.00
2019-02-19T04:54:59.438Z,7.40
2019-02-19T04:57:29.783Z,7.70
2019-02-19T05:00:00.346Z,7.47
2019-02-19T05:02:31.459Z,7.97
2019-02-19T05:05:01.836Z,7.53
2019-02-19T05:07:32.242Z,7.40
2019-02-19T05:10:02.601Z,7.47
2019-02-19T05:12:34.007Z,7.70
2019-02-19T05:15:04.500Z,7.23
2019-02-19T05:17:34.825Z,7.47
2019-02-19T05:20:06.024Z,7.70
2019-02-19T05:22:36.346Z,7.60
2019-02-19T05:25:07.092Z,7.80
2019-02-19T05:27:37.430Z,7.40
2019-02-19T05:30:08.298Z,6.93
2019-02-19T05:32:38.625Z,6.90
2019-02-19T05:35:09.016Z,6.97
2019-02-19T05:37:39.335Z,6.93
2019-02-19T05:40:10.280Z,7.20
2019-02-19T05:42:40.609Z,7.05
2019-02-19T05:45:11.116Z,7.33
2019-02-19T05:47:41.464Z,7.70
2019-02-19T05:50:12.138Z,7.17
2019-02-19T05:52:42.448Z,7.73
2019-02-19T05:55:12.947Z,7.40
2019-02-19T05:57:43.261Z,7.20
2019-02-19T06:00:14.500Z,7.90
2019-02-19T06:02:44.851Z,7.87
2019-02-19T06:05:15.186Z,7.57
2019-02-19T06:07:45.516Z,8.73
2019-02-19T06:10:15.872Z,8.57
2019-02-19T06:12:46.188Z,15.87
2019-02-19T06:15:16.623Z,9.60
2019-02-19T06:17:46.938Z,8.33
2019-02-19T06:20:17.370Z,8.80
2019-02-19T06:22:47.684Z,8.33
2019-02-19T06:25:18.144Z,9.07
2019-02-19T06:27:48.443Z,9.63
2019-02-19T06:30:18.788Z,10.20
2019-02-19T06:32:49.114Z,9.57
2019-02-19T06:35:19.470Z,8.63
2019-02-19T06:37:49.798Z,8.57
2019-02-19T06:40:30.005Z,9.17
2019-02-19T06:43:00.338Z,9.00
2019-02-19T06:45:30.694Z,8.33
2019-02-19T06:48:01.029Z,8.13
2019-02-19T06:50:31.798Z,7.90
2019-02-19T06:53:02.152Z,7.67
2019-02-19T06:55:32.519Z,8.40
2019-02-19T06:58:02.929Z,8.60
2019-02-19T07:00:33.275Z,7.60
2019-02-19T07:03:21.256Z,7.80
2019-02-19T07:05:51.626Z,8.80
2019-02-19T07:08:21.979Z,10.90
2019-02-19T07:10:52.327Z,9.80
2019-02-19T07:13:22.651Z,8.77
2019-02-19T07:15:53.038Z,8.00
2019-02-19T07:18:23.375Z,7.60
2019-02-19T07:20:53.753Z,7.20
2019-02-19T07:23:24.086Z,7.73
2019-02-19T07:25:54.470Z,8.07
2019-02-19T07:28:24.786Z,7.90
2019-02-19T07:30:55.155Z,7.20
2019-02-19T07:33:25.485Z,7.40
2019-02-19T07:35:55.837Z,8.40
2019-02-19T07:38:26.161Z,7.83
2019-02-19T07:40:56.546Z,7.90
2019-02-19T07:43:26.920Z,8.00
2019-02-19T07:45:57.639Z,7.57
2019-02-19T07:48:28.889Z,8.00
2019-02-19T07:50:59.283Z,8.03
2019-02-19T07:53:29.644Z,7.93
2019-02-19T07:55:59.954Z,7.97
2019-02-19T07:58:30.686Z,8.37
2019-02-19T08:01:01.189Z,8.07
2019-02-19T08:03:31.794Z,8.40
2019-02-19T08:06:02.501Z,8.40
2019-02-19T08:08:33.063Z,8.83
2019-02-19T08:11:03.575Z,7.40
2019-02-19T08:13:34.135Z,8.33
2019-02-19T08:16:07.762Z,8.60
2019-02-19T08:18:38.273Z,8.17
2019-02-19T08:21:08.624Z,7.77
2019-02-19T08:23:38.982Z,7.80
2019-02-19T08:26:09.539Z,7.47
2019-02-19T08:29:02.934Z,7.90
2019-02-19T08:31:26.669Z,7.73
2019-02-19T08:33:57.151Z,8.80
2019-02-19T08:36:29.587Z,8.40
2019-02-19T08:38:59.654Z,8.73
2019-02-19T08:41:30.005Z,12.73
2019-02-19T08:44:00.595Z,11.70
2019-02-19T08:46:31.679Z,13.93
2019-02-19T08:49:02.511Z,13.63
2019-02-19T08:51:32.881Z,12.37
2019-02-19T08:54:03.583Z,9.90
2019-02-19T08:56:33.967Z,12.23
2019-02-19T08:59:04.396Z,13.35
2019-02-19T09:01:34.756Z,15.23
2019-02-19T09:04:05.136Z,13.40
2019-02-19T09:06:35.462Z,11.63
2019-02-19T09:09:07.051Z,10.57
2019-02-19T09:11:38.765Z,10.07
2019-02-19T09:14:09.121Z,11.30
2019-02-19T09:16:39.566Z,9.57
2019-02-19T09:19:09.919Z,9.80
2019-02-19T09:21:40.309Z,9.83
2019-02-19T09:24:10.672Z,10.37
2019-02-19T09:26:41.003Z,9.40
2019-02-19T09:29:11.547Z,9.90
2019-02-19T09:31:41.914Z,10.13
2019-02-19T09:34:12.290Z,12.77
2019-02-19T09:36:42.629Z,11.80
2019-02-19T09:39:13.302Z,11.53
2019-02-19T09:41:43.636Z,11.10
2019-02-19T09:44:13.989Z,9.90
2019-02-19T09:46:44.349Z,10.07
2019-02-19T09:49:14.706Z,9.77
2019-02-19T09:51:45.575Z,10.93
2019-02-19T09:54:15.999Z,8.50
2019-02-19T09:56:46.326Z,10.67
2019-02-19T09:59:16.707Z,9.30
2019-02-19T10:01:47.111Z,10.50
2019-02-19T10:04:17.591Z,8.83
2019-02-19T10:06:48.013Z,9.43
2019-02-19T10:09:18.398Z,10.30
2019-02-19T10:11:48.754Z,9.20
2019-02-19T10:14:19.193Z,7.87
2019-02-19T10:16:49.518Z,8.87
2019-02-19T10:19:19.865Z,9.33
2019-02-19T10:21:50.220Z,8.53
2019-02-19T10:24:20.594Z,8.47
2019-02-19T10:26:50.921Z,9.03
2019-02-19T10:29:21.249Z,8.13
2019-02-19T10:31:51.645Z,8.67
2019-02-19T10:34:22.095Z,8.77
2019-02-19T10:36:52.435Z,8.57
2019-02-19T10:39:22.791Z,9.17
2019-02-19T10:41:53.113Z,8.57
2019-02-19T10:44:23.486Z,8.47
2019-02-19T10:46:53.857Z,8.77
2019-02-19T10:49:24.242Z,9.07
2019-02-19T10:51:54.568Z,8.97
2019-02-19T10:54:24.973Z,9.20
2019-02-19T10:56:55.336Z,9.30
2019-02-19T10:59:25.701Z,9.33
2019-02-19T11:01:56.043Z,8.90
2019-02-19T11:04:26.394Z,8.27
2019-02-19T11:06:56.769Z,9.20
2019-02-19T11:09:27.278Z,8.40
2019-02-19T11:11:58.142Z,8.67
2019-02-19T11:14:28.679Z,8.93
2019-02-19T11:16:59.014Z,8.60
2019-02-19T11:19:30.659Z,8.63
2019-02-19T11:22:01.009Z,8.33
2019-02-19T11:24:31.383Z,9.40
2019-02-19T11:27:01.701Z,9.40
2019-02-19T11:29:32.079Z,9.67
2019-02-19T11:32:04.181Z,10.20
2019-02-19T11:34:35.635Z,9.83
2019-02-19T11:37:06.046Z,9.85
2019-02-19T11:39:36.836Z,10.30
2019-02-19T11:42:07.212Z,10.10
2019-02-19T11:44:38.881Z,11.07
2019-02-19T11:47:09.282Z,11.20
2019-02-19T11:49:40.784Z,14.07
2019-02-19T11:52:11.153Z,12.30
2019-02-19T11:54:41.524Z,12.00
2019-02-19T11:57:12.105Z,11.93
2019-02-19T11:59:43.502Z,11.80
2019-02-19T12:02:16.015Z,11.20
2019-02-19T12:04:46.530Z,11.53
2019-02-19T12:07:16.892Z,12.20
2019-02-19T12:09:47.246Z,13.73
2019-02-19T12:12:17.587Z,13.27
2019-02-19T12:14:48.014Z,13.07
2019-02-19T12:17:18.352Z,13.23
2019-02-19T12:19:48.713Z,15.20
2019-02-19T12:22:19.084Z,14.00
2019-02-19T12:24:49.476Z,13.50
2019-02-19T12:27:19.795Z,13.13
2019-02-19T12:29:59.366Z,15.23
2019-02-19T12:32:33.508Z,15.33
2019-02-19T12:35:06.027Z,14.33
2019-02-19T12:37:38.773Z,14.57
2019-02-19T12:40:12.282Z,15.23
2019-02-19T12:42:45.349Z,14.07
2019-02-19T12:45:18.361Z,13.70
2019-02-19T12:47:50.748Z,14.63
2019-02-19T12:50:24.269Z,15.57
2019-02-19T12:52:57.156Z,16.00
2019-02-19T12:55:27.707Z,26.47
2019-02-19T12:57:58.054Z,24.87
2019-02-19T13:00:28.413Z,23.53
2019-02-19T13:02:58.749Z,16.00
2019-02-19T13:05:29.115Z,15.10
2019-02-19T13:07:59.446Z,15.93
2019-02-19T13:10:29.803Z,16.53
2019-02-19T13:13:00.231Z,17.50
2019-02-19T13:15:30.639Z,18.20
2019-02-19T13:18:00.974Z,16.13
2019-02-19T13:20:31.350Z,15.40
2019-02-19T13:23:01.721Z,15.17
2019-02-19T13:25:32.087Z,16.77
2019-02-19T13:28:02.413Z,17.17
2019-02-19T13:30:32.764Z,18.00
2019-02-19T13:33:03.098Z,16.87
2019-02-19T13:35:33.500Z,16.90
2019-02-19T13:38:03.817Z,18.10
2019-02-19T13:43:12.378Z,30.60
2019-02-19T13:45:42.753Z,17.67
2019-02-19T13:48:13.090Z,15.47
2019-02-19T13:50:43.463Z,14.80
2019-02-19T13:53:31.709Z,15.40
2019-02-19T13:56:03.260Z,15.00
2019-02-19T13:58:33.624Z,16.37
2019-02-19T14:01:04.082Z,15.17
2019-02-19T14:03:34.406Z,13.90
2019-02-19T14:06:04.818Z,14.00
2019-02-19T14:08:35.140Z,13.23
2019-02-19T14:11:05.846Z,13.70
2019-02-19T14:13:37.676Z,13.83
2019-02-19T14:16:33.263Z,13.27
2019-02-19T14:19:08.753Z,13.50
2019-02-19T14:22:04.792Z,13.87
2019-02-19T14:24:52.973Z,13.93
2019-02-19T14:27:57.717Z,13.93
2019-02-19T14:30:50.254Z,13.77
2019-02-19T14:33:48.541Z,13.87
2019-02-19T14:36:27.468Z,15.27
2019-02-19T14:39:12.439Z,15.57
2019-02-19T14:42:04.886Z,15.60
2019-02-19T14:45:03.073Z,15.50
2019-02-19T14:48:01.722Z,15.20
2019-02-19T14:50:53.966Z,16.40
2019-02-19T14:53:36.518Z,16.33
2019-02-19T14:56:34.859Z,16.07
2019-02-19T14:59:23.112Z,17.33
2019-02-19T15:02:21.539Z,16.97
2019-02-19T15:05:22.828Z,17.00
2019-02-19T15:08:14.485Z,15.27
2019-02-19T15:11:02.645Z,15.77
2019-02-19T15:13:51.963Z,17.67
2019-02-19T15:16:32.372Z,17.63
2019-02-19T15:19:20.002Z,18.10
2019-02-19T15:22:21.354Z,19.30
2019-02-19T15:25:09.655Z,19.00
2019-02-19T15:27:58.963Z,17.43
2019-02-19T15:30:46.826Z,18.67
2019-02-19T15:33:54.493Z,20.27
2019-02-19T15:36:42.487Z,22.10
2019-02-19T15:39:38.224Z,21.97
2019-02-19T15:42:36.404Z,20.80
2019-02-19T15:45:37.958Z,19.77
2019-02-19T15:48:27.257Z,20.90
2019-02-19T15:51:25.412Z,22.80
2019-02-19T15:54:10.701Z,20.70
2019-02-19T15:56:58.942Z,21.03
2019-02-19T15:59:47.315Z,17.33
2019-02-19T16:02:38.839Z,17.33
2019-02-19T16:05:28.279Z,16.70
2019-02-19T16:08:14.217Z,16.63
2019-02-19T16:10:50.953Z,17.20
2019-02-19T16:13:52.476Z,17.47
2019-02-19T16:16:42.604Z,16.37
2019-02-19T16:19:34.724Z,21.10
2019-02-19T16:22:42.313Z,38.27
2019-02-19T16:25:21.511Z,30.60
2019-02-19T16:28:19.081Z,26.80
2019-02-19T16:31:08.378Z,24.23
2019-02-19T16:33:56.691Z,22.40
2019-02-19T16:36:42.552Z,19.20
2019-02-19T16:39:37.671Z,18.83
2019-02-19T16:42:27.003Z,18.67
2019-02-19T16:45:23.292Z,19.53
2019-02-19T16:48:15.591Z,20.33
2019-02-19T16:50:56.327Z,20.70
2019-02-19T16:53:53.375Z,20.23
2019-02-19T16:56:35.745Z,18.40
2019-02-19T16:59:31.451Z,20.27
2019-02-19T17:02:17.578Z,18.33
2019-02-19T17:04:54.929Z,19.60
2019-02-19T17:07:34.189Z,20.10
2019-02-19T17:10:36.017Z,22.57
2019-02-19T17:13:25.436Z,23.87
2019-02-19T17:16:14.807Z,23.60
2019-02-19T17:18:55.411Z,22.98
2019-02-19T17:21:35.731Z,23.90
2019-02-19T17:24:32.389Z,22.23
2019-02-19T17:27:19.756Z,22.20
2019-02-19T17:30:18.546Z,23.30
2019-02-19T17:33:07.683Z,23.25
2019-02-19T17:36:03.240Z,25.62
2019-02-19T17:38:42.239Z,23.70
2019-02-19T17:41:18.807Z,22.57
2019-02-19T17:44:04.435Z,23.85
2019-02-19T17:46:52.888Z,23.30
2019-02-19T17:49:52.519Z,21.07
2019-02-19T17:52:37.586Z,20.77
2019-02-19T17:55:27.073Z,21.80
2019-02-19T17:58:12.463Z,21.47
2019-02-19T18:01:00.605Z,19.97
2019-02-19T18:03:56.063Z,27.63
2019-02-19T18:06:43.599Z,44.70
2019-02-19T18:09:33.858Z,29.83
2019-02-19T18:12:10.466Z,31.37
2019-02-19T18:14:58.674Z,30.67
2019-02-19T18:17:46.458Z,31.70
2019-02-19T18:20:18.546Z,37.30
2019-02-19T18:22:48.882Z,34.60
2019-02-19T18:25:19.220Z,28.73
2019-02-19T18:27:49.729Z,27.17
2019-02-19T18:30:21.950Z,29.47
2019-02-19T18:32:53.025Z,28.33
2019-02-19T18:35:23.392Z,29.00
2019-02-19T18:37:53.750Z,29.63
2019-02-19T18:40:24.123Z,27.87
2019-02-19T18:42:54.455Z,27.43
2019-02-19T18:45:24.869Z,27.17
2019-02-19T18:47:55.193Z,26.97
2019-02-19T18:50:25.574Z,26.13
2019-02-19T18:52:57.483Z,27.30
2019-02-19T18:55:27.853Z,30.20
2019-02-19T18:57:58.171Z,32.30
2019-02-19T19:00:28.517Z,36.13
2019-02-19T19:02:58.861Z,39.63
2019-02-19T19:05:29.845Z,38.43
2019-02-19T19:08:00.327Z,38.67
2019-02-19T19:10:30.678Z,53.13
2019-02-19T19:13:01.203Z,46.97
2019-02-19T19:15:32.844Z,42.40
2019-02-19T19:18:03.326Z,38.80
2019-02-19T19:20:33.717Z,38.83
2019-02-19T19:23:04.120Z,35.37
2019-02-19T19:25:34.917Z,37.07
2019-02-19T19:28:06.359Z,36.00
2019-02-19T19:30:36.731Z,37.23
2019-02-19T19:33:08.045Z,34.57
2019-02-19T19:35:40.487Z,36.20
2019-02-19T19:38:10.837Z,38.10
2019-02-19T19:40:41.283Z,42.70
2019-02-19T19:43:11.636Z,41.83
2019-02-19T19:45:43.136Z,41.43
2019-02-19T19:48:13.467Z,43.40
2019-02-19T19:50:43.817Z,42.93
2019-02-19T19:53:15.682Z,45.33
2019-02-19T19:55:46.026Z,43.83
2019-02-19T19:58:17.818Z,45.70
2019-02-19T20:00:48.193Z,44.17
2019-02-19T20:03:19.088Z,48.13
2019-02-19T20:05:49.997Z,45.87
2019-02-19T20:08:21.281Z,44.87
2019-02-19T20:10:51.875Z,43.10
2019-02-19T20:13:22.215Z,43.83
2019-02-19T20:15:52.648Z,43.77
2019-02-19T20:18:24.067Z,43.87
2019-02-19T20:20:55.559Z,44.10
2019-02-19T20:23:27.010Z,44.17
2019-02-19T20:25:58.251Z,44.53
2019-02-19T20:28:30.725Z,48.23
2019-02-19T20:31:02.692Z,45.87
2019-02-19T20:33:33.129Z,44.83
2019-02-19T20:36:03.551Z,47.00
2019-02-19T20:38:34.122Z,48.07
2019-02-19T20:41:04.564Z,47.07
2019-02-19T20:43:35.023Z,46.87
2019-02-19T20:46:06.126Z,46.13
2019-02-19T20:48:36.554Z,43.52
2019-02-19T20:51:06.936Z,44.33
2019-02-19T20:53:37.379Z,43.07
2019-02-19T20:56:07.887Z,43.37
2019-02-19T20:58:38.418Z,42.53
2019-02-19T21:01:08.865Z,43.27
2019-02-19T21:03:39.268Z,45.33
2019-02-19T21:06:10.352Z,44.03
2019-02-19T21:08:41.817Z,43.47
2019-02-19T21:11:15.759Z,42.13
2019-02-19T21:13:46.219Z,43.23
2019-02-19T21:16:18.236Z,43.67
2019-02-19T21:18:49.033Z,43.93
2019-02-19T21:21:19.386Z,42.23
2019-02-19T21:23:50.330Z,41.67
2019-02-19T21:26:22.030Z,40.00
2019-02-19T21:28:52.903Z,43.20
2019-02-19T21:31:23.448Z,42.70
2019-02-19T21:34:01.674Z,46.30
2019-02-19T21:36:35.448Z,42.77
2019-02-19T21:39:07.662Z,47.43
2019-02-19T21:41:39.952Z,46.70
2019-02-19T21:44:12.845Z,49.43
2019-02-19T21:46:44.840Z,51.60
2019-02-19T21:49:16.540Z,55.77
2019-02-19T21:51:53.893Z,59.67
2019-02-19T21:54:19.290Z,57.47
2019-02-19T21:56:50.011Z,54.87
2019-02-19T21:59:22.583Z,50.47
2019-02-19T22:01:52.811Z,43.67
2019-02-19T22:04:25.746Z,43.93
2019-02-19T22:06:56.115Z,49.50
2019-02-19T22:09:28.715Z,52.97
2019-02-19T22:11:59.092Z,54.27
2019-02-19T22:14:29.419Z,49.73
2019-02-19T22:16:59.775Z,51.47
2019-02-19T22:19:30.139Z,49.33
2019-02-19T22:22:13.188Z,49.37
2019-02-19T22:24:43.628Z,49.37
2019-02-19T22:27:14.065Z,49.00
2019-02-19T22:29:44.449Z,54.10
2019-02-19T22:32:17.026Z,54.37
2019-02-19T22:34:47.370Z,57.27
2019-02-19T22:37:17.741Z,56.77
2019-02-19T22:39:48.124Z,52.73
2019-02-19T22:42:18.588Z,54.73
2019-02-19T22:44:48.910Z,56.87
2019-02-19T22:47:19.278Z,51.37
2019-02-19T22:49:49.611Z,56.63
2019-02-19T22:52:19.970Z,58.73
2019-02-19T22:54:59.383Z,56.93
2019-02-19T22:57:29.748Z,54.23
2019-02-19T23:00:01.649Z,57.97
2019-02-19T23:02:33.828Z,55.90
2019-02-19T23:05:04.653Z,56.77
2019-02-19T23:07:35.981Z,62.10
2019-02-19T23:10:06.908Z,52.03
2019-02-19T23:12:37.665Z,50.80
2019-02-19T23:15:08.086Z,49.63
2019-02-19T23:17:40.089Z,51.20
2019-02-19T23:20:11.044Z,55.03
2019-02-19T23:22:41.492Z,48.73
2019-02-19T23:25:11.862Z,53.53
2019-02-19T23:27:42.319Z,49.20
2019-02-19T23:30:13.099Z,48.73
2019-02-19T23:32:45.293Z,48.57
2019-02-19T23:35:24.985Z,47.83
2019-02-19T23:37:55.639Z,45.97
2019-02-19T23:40:26.346Z,43.23
2019-02-19T23:42:56.869Z,42.43
2019-02-19T23:45:29.881Z,41.17
2019-02-19T23:48:00.543Z,42.80
2019-02-19T23:50:31.883Z,45.73
2019-02-19T23:53:02.398Z,46.20
2019-02-19T23:55:33.061Z,46.40
2019-02-19T23:58:04.811Z,50.40
